Time;durP1;ratioP1;P1;durP2;ratioP2;P2;SDS_P1;SDS_P2;PMS_P1;PMS_P2;Temp;Humidity;BMP_temperature;BMP_pressure;BME280_temperature;BME280_humidity;BME280_pressure;Samples;Min_cycle;Max_cycle;Signal;HPM_P1;HPM_P2
2024/01/31 00:00:38;;;;;;;90.70;37.60;;;;;;;5.00;100.00;101602.63;5009479;28;20055;-82
2024/01/31 00:03:05;;;;;;;75.43;34.40;;;;;;;5.02;100.00;101600.78;5039700;28;20052;-82
2024/01/31 00:05:32;;;;;;;92.95;39.83;;;;;;;5.02;100.00;101598.16;5009645;28;20045;-83
2024/01/31 00:07:59;;;;;;;77.07;35.05;;;;;;;5.04;100.00;101603.34;5040509;28;20061;-83
2024/01/31 00:10:26;;;;;;;84.70;36.58;;;;;;;5.04;100.00;101598.97;5050576;28;20441;-82
2024/01/31 00:12:53;;;;;;;79.30;35.38;;;;;;;5.03;100.00;101586.69;5024112;28;20038;-83
2024/01/31 00:15:20;;;;;;;80.97;34.38;;;;;;;5.03;100.00;101591.97;5022848;28;20600;-82
2024/01/31 00:17:47;;;;;;;83.65;34.15;;;;;;;5.05;100.00;101591.94;5048392;28;20045;-82
2024/01/31 00:20:14;;;;;;;81.28;34.50;;;;;;;5.07;100.00;101592.72;5024798;28;20041;-82
2024/01/31 00:22:41;;;;;;;93.32;38.65;;;;;;;5.08;100.00;101602.34;5025656;28;20041;-83
2024/01/31 00:25:08;;;;;;;85.40;34.63;;;;;;;5.08;100.00;101604.97;5023779;28;20409;-82
2024/01/31 00:27:35;;;;;;;86.72;37.83;;;;;;;5.11;100.00;101615.38;5047249;28;20492;-82
2024/01/31 00:30:03;;;;;;;95.25;38.05;;;;;;;5.11;100.00;101618.00;5035926;28;20124;-82
2024/01/31 00:32:31;;;;;;;90.47;38.42;;;;;;;5.12;100.00;101619.75;5021227;28;20057;-82
2024/01/31 00:34:57;;;;;;;97.50;40.10;;;;;;;5.13;100.00;101611.78;5051127;28;20052;-82
2024/01/31 00:37:24;;;;;;;83.80;36.45;;;;;;;5.13;100.00;101605.66;5005410;28;20126;-82
2024/01/31 00:39:51;;;;;;;81.60;35.10;;;;;;;5.14;100.00;101616.16;5066515;28;20091;-82
2024/01/31 00:42:19;;;;;;;100.20;37.78;;;;;;;5.15;100.00;101609.94;5047409;28;20063;-83
2024/01/31 00:44:46;;;;;;;83.28;36.05;;;;;;;5.16;100.00;101616.91;5026527;28;20843;-82
2024/01/31 00:47:13;;;;;;;83.07;38.22;;;;;;;5.15;100.00;101612.59;5019131;28;20699;-82
2024/01/31 00:49:40;;;;;;;87.13;37.25;;;;;;;5.14;100.00;101608.25;5021963;28;20399;-82
2024/01/31 00:52:07;;;;;;;87.40;37.15;;;;;;;5.15;100.00;101607.31;5009397;28;20429;-82
2024/01/31 00:54:34;;;;;;;90.30;37.90;;;;;;;5.16;100.00;101598.50;5030811;28;20471;-82
2024/01/31 00:57:01;;;;;;;90.43;35.35;;;;;;;5.16;100.00;101600.28;5068060;28;20072;-82
2024/01/31 00:59:28;;;;;;;93.28;38.42;;;;;;;5.15;100.00;101602.06;5007112;28;20041;-83
2024/01/31 01:01:55;;;;;;;107.80;42.58;;;;;;;5.17;100.00;101609.91;5037503;28;20048;-82
2024/01/31 01:04:22;;;;;;;88.28;38.72;;;;;;;5.16;100.00;101608.16;5023729;28;20069;-82
2024/01/31 01:06:49;;;;;;;90.35;40.15;;;;;;;5.16;100.00;101611.66;5049971;28;20049;-82
2024/01/31 01:09:16;;;;;;;100.10;43.58;;;;;;;5.16;100.00;101611.66;5023352;28;20504;-82
2024/01/31 01:11:42;;;;;;;101.30;42.13;;;;;;;5.17;100.00;101609.91;5035314;28;20116;-82
2024/01/31 01:14:09;;;;;;;112.85;43.65;;;;;;;5.17;100.00;101610.75;5028875;28;20058;-82
2024/01/31 01:16:36;;;;;;;105.22;42.25;;;;;;;5.16;100.00;101608.16;5011206;28;20136;-82
2024/01/31 01:19:04;;;;;;;92.55;40.03;;;;;;;5.16;100.00;101609.03;5045594;28;20041;-82
2024/01/31 01:21:32;;;;;;;101.25;40.67;;;;;;;5.16;100.00;101610.81;5038817;28;20048;-83
2024/01/31 01:23:59;;;;;;;97.38;40.60;;;;;;;5.16;100.00;101605.53;5017895;28;20041;-82
2024/01/31 01:26:26;;;;;;;111.55;43.08;;;;;;;5.16;100.00;101605.53;5035165;28;20049;-82
2024/01/31 01:28:53;;;;;;;100.20;41.20;;;;;;;5.17;100.00;101607.28;5020408;28;20527;-82
2024/01/31 01:31:20;;;;;;;112.03;41.83;;;;;;;5.15;100.00;101602.06;5064650;28;20103;-82
2024/01/31 01:33:47;;;;;;;121.28;45.33;;;;;;;5.18;100.00;101609.81;5033634;28;20044;-82
2024/01/31 01:36:14;;;;;;;114.60;45.10;;;;;;;5.17;100.00;101602.84;5017364;28;20053;-82
2024/01/31 01:38:41;;;;;;;114.55;45.13;;;;;;;5.16;100.00;101603.75;5020967;28;20048;-82
2024/01/31 01:41:08;;;;;;;97.43;40.78;;;;;;;5.17;100.00;101604.63;5025450;28;20102;-82
2024/01/31 01:43:35;;;;;;;108.47;43.17;;;;;;;5.17;100.00;101607.28;5053892;28;20045;-83
2024/01/31 01:46:12;;;;;;;106.85;45.03;;;;;;;5.15;100.00;101607.31;5047332;28;20120;-82
2024/01/31 01:48:40;;;;;;;98.72;43.15;;;;;;;5.17;100.00;101599.38;5015592;28;20056;-83
2024/01/31 01:51:06;;;;;;;106.97;42.88;;;;;;;5.17;100.00;101597.59;5023795;28;20049;-84
2024/01/31 01:53:38;;;;;;;94.38;40.25;;;;;;;5.19;100.00;101584.34;5024335;28;20055;-82
2024/01/31 01:56:07;;;;;;;100.90;42.55;;;;;;;5.19;100.00;101585.22;5020003;28;20052;-82
2024/01/31 01:58:36;;;;;;;104.80;41.60;;;;;;;5.19;100.00;101579.97;5031640;28;20136;-82
2024/01/31 02:01:03;;;;;;;89.13;36.55;;;;;;;5.21;100.00;101585.16;5054278;28;20083;-82
2024/01/31 02:03:30;;;;;;;99.50;42.67;;;;;;;5.21;100.00;101578.09;5056993;28;20135;-82
2024/01/31 02:05:58;;;;;;;84.45;39.33;;;;;;;5.21;100.00;101587.78;5024479;28;20060;-82
2024/01/31 02:08:26;;;;;;;110.70;41.03;;;;;;;5.21;100.00;101579.88;5024370;28;20048;-82
2024/01/31 02:10:53;;;;;;;97.78;41.97;;;;;;;5.21;100.00;101575.47;5037274;28;20060;-82
2024/01/31 02:13:20;;;;;;;109.65;44.25;;;;;;;5.23;100.00;101581.53;5039858;28;20056;-84
2024/01/31 02:15:51;;;;;;;106.65;45.17;;;;;;;5.21;100.00;101578.09;5031570;28;20124;-82
2024/01/31 02:18:18;;;;;;;91.20;37.53;;;;;;;5.21;100.00;101574.63;5016154;28;20127;-82
2024/01/31 02:20:45;;;;;;;100.72;41.15;;;;;;;5.22;100.00;101576.34;5020587;28;20037;-82
2024/01/31 02:23:12;;;;;;;92.00;37.60;;;;;;;5.22;100.00;101587.75;5006109;28;20439;-83
2024/01/31 02:25:39;;;;;;;96.78;39.45;;;;;;;5.22;100.00;101592.16;5022955;28;20111;-82
2024/01/31 02:28:05;;;;;;;92.28;40.13;;;;;;;5.22;100.00;101589.53;5032604;28;20527;-82
2024/01/31 02:30:32;;;;;;;107.88;43.00;;;;;;;5.23;100.00;101591.22;4992130;28;20041;-82
2024/01/31 02:32:59;;;;;;;111.45;42.58;;;;;;;5.23;100.00;101588.59;5001268;28;20042;-82
2024/01/31 02:35:26;;;;;;;103.20;39.60;;;;;;;5.21;100.00;101591.28;5023132;28;20099;-82
2024/01/31 02:37:53;;;;;;;113.68;46.75;;;;;;;5.22;100.00;101584.25;5002406;28;20049;-82
2024/01/31 02:40:22;;;;;;;97.60;42.08;;;;;;;5.22;100.00;101579.00;5017910;28;20029;-82
2024/01/31 02:42:48;;;;;;;108.97;41.15;;;;;;;5.23;100.00;101578.91;5022568;28;20390;-82
2024/01/31 02:45:15;;;;;;;107.28;41.90;;;;;;;5.25;100.00;101585.91;5046979;28;20492;-82
2024/01/31 02:47:42;;;;;;;98.55;40.72;;;;;;;5.25;100.00;101578.88;5032595;28;20150;-82
2024/01/31 02:50:09;;;;;;;89.45;39.95;;;;;;;5.26;100.00;101585.84;5030594;28;20511;-83
2024/01/31 02:52:36;;;;;;;90.63;39.33;;;;;;;5.26;100.00;101583.19;5057022;28;20045;-82
2024/01/31 02:55:04;;;;;;;81.43;37.20;;;;;;;5.27;100.00;101584.94;5034128;28;20041;-82
2024/01/31 02:57:30;;;;;;;90.25;37.63;;;;;;;5.27;100.00;101587.56;5043071;28;20055;-83
2024/01/31 02:59:57;;;;;;;93.32;37.97;;;;;;;5.28;100.00;101586.63;5048647;28;20084;-82
2024/01/31 03:02:24;;;;;;;85.60;37.38;;;;;;;5.28;100.00;101584.00;5043713;28;20041;-82
2024/01/31 03:04:51;;;;;;;78.30;37.35;;;;;;;5.29;100.00;101584.84;5041338;28;20045;-83
2024/01/31 03:07:18;;;;;;;85.25;35.42;;;;;;;5.28;100.00;101578.75;5021322;28;20751;-82
2024/01/31 03:09:45;;;;;;;106.18;42.20;;;;;;;5.31;100.00;101575.13;5038747;28;20052;-82
2024/01/31 03:12:12;;;;;;;86.28;37.22;;;;;;;5.29;100.00;101580.47;5019902;28;20061;-84
2024/01/31 03:14:38;;;;;;;81.20;36.63;;;;;;;5.31;100.00;101575.13;5027864;28;20051;-82
2024/01/31 03:17:05;;;;;;;87.45;38.63;;;;;;;5.30;100.00;101571.63;5034037;28;20049;-83
2024/01/31 03:19:32;;;;;;;85.78;37.63;;;;;;;5.30;100.00;101573.44;5023518;28;20405;-82
2024/01/31 03:21:59;;;;;;;98.00;38.30;;;;;;;5.30;100.00;101563.75;5021689;28;20694;-83
2024/01/31 03:24:26;;;;;;;89.63;37.80;;;;;;;5.30;100.00;101569.00;5030965;28;20140;-82
2024/01/31 03:26:53;;;;;;;88.30;35.92;;;;;;;5.30;100.00;101565.53;4992763;28;20048;-82
2024/01/31 03:29:19;;;;;;;79.63;34.17;;;;;;;5.30;100.00;101568.16;5007843;28;20480;-82
2024/01/31 03:31:46;;;;;;;86.55;37.53;;;;;;;5.32;100.00;101575.09;5039916;28;20403;-83
2024/01/31 03:34:13;;;;;;;82.45;37.40;;;;;;;5.32;100.00;101568.97;5003290;28;20042;-83
2024/01/31 03:36:40;;;;;;;93.55;39.80;;;;;;;5.31;100.00;101565.44;5036802;28;20470;-83
2024/01/31 03:39:07;;;;;;;97.72;39.42;;;;;;;5.32;100.00;101566.31;5036075;28;20072;-83
2024/01/31 03:41:34;;;;;;;100.35;40.45;;;;;;;5.30;100.00;101565.53;5052566;28;20049;-82
2024/01/31 03:44:00;;;;;;;89.07;37.55;;;;;;;5.29;100.00;101569.94;5020815;28;20040;-82
2024/01/31 03:46:27;;;;;;;100.07;40.92;;;;;;;5.30;100.00;101586.59;4994151;28;20068;-82
2024/01/31 03:48:54;;;;;;;75.13;35.83;;;;;;;5.32;100.00;101600.56;5065735;28;20496;-82
2024/01/31 03:51:22;;;;;;;105.78;39.58;;;;;;;5.32;100.00;101593.53;5010044;28;20124;-83
2024/01/31 03:53:50;;;;;;;95.05;38.22;;;;;;;5.33;100.00;101592.59;5051212;28;20049;-84
2024/01/31 03:56:17;;;;;;;85.38;38.17;;;;;;;5.32;100.00;101593.53;5043055;28;20484;-82
2024/01/31 03:58:44;;;;;;;83.28;36.45;;;;;;;5.32;100.00;101593.53;5032691;28;20063;-83
2024/01/31 04:01:14;;;;;;;87.13;36.35;;;;;;;5.34;100.00;101601.34;5044859;28;20132;-82
2024/01/31 04:03:43;;;;;;;85.35;37.55;;;;;;;5.33;100.00;101594.38;5057574;28;20144;-83
2024/01/31 04:06:10;;;;;;;111.43;46.72;;;;;;;5.34;100.00;101601.34;5055098;28;20092;-82
2024/01/31 04:08:37;;;;;;;111.70;46.15;;;;;;;5.33;100.00;101602.28;5003907;28;20049;-82
2024/01/31 04:11:04;;;;;;;94.07;40.08;;;;;;;5.33;100.00;101600.50;5017466;28;20128;-83
2024/01/31 04:13:31;;;;;;;90.55;37.88;;;;;;;5.34;100.00;101604.88;5032739;28;20041;-82
2024/01/31 04:15:58;;;;;;;84.07;36.88;;;;;;;5.35;100.00;101611.84;5024961;28;20052;-82
2024/01/31 04:18:25;;;;;;;83.90;36.10;;;;;;;5.37;100.00;101623.19;5051308;28;20091;-82
2024/01/31 04:20:51;;;;;;;99.88;39.55;;;;;;;5.38;100.00;101624.03;5037254;28;20040;-82
2024/01/31 04:23:18;;;;;;;104.20;43.75;;;;;;;5.36;100.00;101625.84;5026681;28;20045;-82
2024/01/31 04:25:45;;;;;;;98.07;37.70;;;;;;;5.35;100.00;101625.00;5032477;28;20069;-82
2024/01/31 04:28:13;;;;;;;93.82;39.53;;;;;;;5.38;100.00;101629.31;5035448;28;20048;-82
2024/01/31 04:30:40;;;;;;;106.50;39.80;;;;;;;5.37;100.00;101631.09;5018970;28;20060;-82
2024/01/31 04:33:07;;;;;;;98.68;41.90;;;;;;;5.39;100.00;101629.25;5025241;28;20055;-83
2024/01/31 04:35:34;;;;;;;92.00;42.53;;;;;;;5.38;100.00;101631.94;5003465;28;20133;-82
2024/01/31 04:38:01;;;;;;;113.80;48.63;;;;;;;5.38;100.00;101627.53;5018102;28;20459;-82
2024/01/31 04:40:28;;;;;;;106.80;45.72;;;;;;;5.38;100.00;101624.03;4981629;28;1095318;-83
2024/01/31 04:42:55;;;;;;;108.47;44.40;;;;;;;5.40;100.00;101623.06;5019149;28;20632;-82
2024/01/31 04:45:22;;;;;;;103.95;45.97;;;;;;;5.40;100.00;101623.06;5036248;28;20048;-82
2024/01/31 04:47:48;;;;;;;111.07;46.85;;;;;;;5.40;100.00;101628.31;5024124;28;20140;-82
2024/01/31 04:50:15;;;;;;;96.57;44.58;;;;;;;5.41;100.00;101631.81;5065875;28;20622;-82
2024/01/31 04:52:44;;;;;;;120.75;50.42;;;;;;;5.42;100.00;101631.75;5037943;28;20492;-83
2024/01/31 04:55:10;;;;;;;109.95;46.85;;;;;;;5.40;100.00;101624.84;5034604;28;20080;-83
2024/01/31 04:57:39;;;;;;;97.93;46.30;;;;;;;5.40;100.00;101620.41;5018845;28;20069;-82
2024/01/31 05:00:07;;;;;;;106.93;44.85;;;;;;;5.42;100.00;101631.75;5015439;28;20048;-83
2024/01/31 05:02:33;;;;;;;95.72;41.00;;;;;;;5.42;100.00;101639.66;5030859;28;20128;-83
2024/01/31 05:05:01;;;;;;;103.20;44.58;;;;;;;5.43;100.00;101640.53;5039517;28;20103;-83
2024/01/31 05:07:28;;;;;;;111.78;46.50;;;;;;;5.43;100.00;101648.44;5053689;28;20041;-83
2024/01/31 05:09:54;;;;;;;101.35;44.15;;;;;;;5.41;100.00;101656.38;5034957;28;20114;-83
2024/01/31 05:12:21;;;;;;;99.63;43.03;;;;;;;5.42;100.00;101650.22;5045853;28;20050;-83
2024/01/31 05:14:48;;;;;;;94.97;43.05;;;;;;;5.42;100.00;101652.84;5051504;28;20508;-83
2024/01/31 05:17:17;;;;;;;94.93;42.00;;;;;;;5.44;100.00;101648.38;5039464;28;20056;-84
2024/01/31 05:19:44;;;;;;;99.43;42.60;;;;;;;5.46;100.00;101650.09;5022144;28;20073;-83
2024/01/31 05:22:11;;;;;;;100.25;44.53;;;;;;;5.47;100.00;101650.03;5033025;28;20109;-83
2024/01/31 05:24:39;;;;;;;106.55;44.95;;;;;;;5.47;100.00;101655.31;5035574;28;20048;-83
2024/01/31 05:27:06;;;;;;;123.57;49.80;;;;;;;5.46;100.00;101663.25;5018866;28;20049;-84
2024/01/31 05:29:33;;;;;;;133.02;55.30;;;;;;;5.43;100.00;101666.88;5016506;28;20133;-82
2024/01/31 05:31:59;;;;;;;117.25;50.13;;;;;;;5.44;100.00;101663.31;5019899;28;20472;-84
2024/01/31 05:34:27;;;;;;;125.68;51.72;;;;;;;5.44;100.00;101661.56;5038018;28;20049;-82
2024/01/31 05:36:54;;;;;;;122.80;52.58;;;;;;;5.47;100.00;101670.22;5018928;28;20042;-83
2024/01/31 05:39:21;;;;;;;123.78;52.10;;;;;;;5.49;100.00;101663.13;5032063;28;20044;-82
2024/01/31 05:41:48;;;;;;;118.50;47.97;;;;;;;5.48;100.00;101654.38;5040178;28;20052;-82
2024/01/31 05:44:14;;;;;;;115.55;46.90;;;;;;;5.48;100.00;101654.38;5038464;28;20547;-82
2024/01/31 05:46:41;;;;;;;117.43;47.17;;;;;;;5.48;100.00;101657.00;5020843;28;20419;-82
2024/01/31 05:49:08;;;;;;;104.60;45.05;;;;;;;5.50;100.00;101654.34;5048446;28;20062;-83
2024/01/31 05:51:35;;;;;;;97.18;40.33;;;;;;;5.50;100.00;101660.47;5044190;28;20126;-83
2024/01/31 05:54:02;;;;;;;95.80;41.53;;;;;;;5.51;100.00;101653.41;5048507;28;20041;-83
2024/01/31 05:56:29;;;;;;;106.30;47.58;;;;;;;5.51;100.00;101656.03;5030758;28;20041;-82
2024/01/31 05:58:56;;;;;;;117.07;49.75;;;;;;;5.52;100.00;101652.47;5014839;28;20060;-83
2024/01/31 06:01:22;;;;;;;107.75;45.92;;;;;;;5.51;100.00;101643.72;5028877;28;20057;-82
2024/01/31 06:03:49;;;;;;;106.55;45.88;;;;;;;5.51;100.00;101650.78;5018165;28;20050;-82
2024/01/31 06:06:16;;;;;;;111.78;47.20;;;;;;;5.51;100.00;101645.50;5046739;28;20048;-82
2024/01/31 06:08:43;;;;;;;113.43;46.92;;;;;;;5.52;100.00;101647.19;5022872;28;20120;-82
2024/01/31 06:11:10;;;;;;;109.63;46.90;;;;;;;5.51;100.00;101648.13;5036995;28;20131;-82
2024/01/31 06:13:37;;;;;;;100.88;43.30;;;;;;;5.52;100.00;101656.00;5030201;28;20045;-82
2024/01/31 06:16:04;;;;;;;97.72;41.20;;;;;;;5.53;100.00;101659.47;5018881;28;20065;-82
2024/01/31 06:18:34;;;;;;;98.13;40.20;;;;;;;5.52;100.00;101658.63;5034538;28;20057;-83
2024/01/31 06:21:02;;;;;;;82.80;37.83;;;;;;;5.53;100.00;101665.59;5063003;28;20428;-83
2024/01/31 06:23:30;;;;;;;90.15;37.88;;;;;;;5.52;100.00;101663.91;5009427;28;20053;-82
2024/01/31 06:26:01;;;;;;;110.95;44.20;;;;;;;5.52;100.00;101661.25;5019198;28;20520;-86
2024/01/31 06:28:27;;;;;;;119.53;48.78;;;;;;;5.52;100.00;101668.28;5010946;28;20858;-85
2024/01/31 06:31:03;;;;;;;113.63;49.03;;;;;;;5.51;100.00;101661.31;5046310;28;20037;-86
2024/01/31 06:33:34;;;;;;;130.85;53.17;;;;;;;5.50;100.00;101664.88;5048479;28;20091;-85
2024/01/31 06:36:02;;;;;;;118.38;54.20;;;;;;;5.50;100.00;101672.78;5032359;28;20051;-86
2024/01/31 06:38:29;;;;;;;117.57;54.60;;;;;;;5.50;100.00;101672.78;5015298;28;22004;-84
2024/01/31 06:40:58;;;;;;;126.40;54.95;;;;;;;5.50;100.00;101676.25;5034100;28;20041;-86
2024/01/31 06:43:25;;;;;;;133.88;54.33;;;;;;;5.51;100.00;101683.25;5035380;28;20041;-85
2024/01/31 06:45:53;;;;;;;114.97;50.38;;;;;;;5.50;100.00;101678.91;5032985;28;20053;-85
2024/01/31 06:48:20;;;;;;;110.28;48.53;;;;;;;5.51;100.00;101674.47;5033010;28;20523;-85
2024/01/31 06:50:47;;;;;;;112.78;48.80;;;;;;;5.51;100.00;101667.44;5003625;28;20049;-85
2024/01/31 06:53:14;;;;;;;121.85;46.58;;;;;;;5.52;100.00;101670.91;5039203;28;20049;-85
2024/01/31 06:55:41;;;;;;;112.07;49.60;;;;;;;5.50;100.00;101664.88;5023774;28;20108;-86
2024/01/31 06:58:08;;;;;;;116.30;50.63;;;;;;;5.50;100.00;101668.34;5034193;28;20059;-86
2024/01/31 07:00:35;;;;;;;105.57;46.25;;;;;;;5.50;100.00;101663.09;5048777;28;20049;-85
2024/01/31 07:03:02;;;;;;;106.50;45.60;;;;;;;5.49;100.00;101668.41;5045739;28;20075;-86
2024/01/31 07:05:29;;;;;;;97.60;43.05;;;;;;;5.50;100.00;101668.34;5016797;28;20042;-85
2024/01/31 07:07:56;;;;;;;107.57;44.58;;;;;;;5.51;100.00;101671.84;5029710;28;20635;-85
2024/01/31 07:10:23;;;;;;;105.63;42.95;;;;;;;5.52;100.00;101657.75;5039938;28;20041;-86
2024/01/31 07:12:52;;;;;;;117.93;47.42;;;;;;;5.53;100.00;101659.47;5003546;28;20569;-85
2024/01/31 07:15:22;;;;;;;118.57;49.75;;;;;;;5.53;100.00;101662.13;5041914;28;20627;-85
2024/01/31 07:17:49;;;;;;;119.60;46.92;;;;;;;5.53;100.00;101665.59;5018734;28;20125;-85
2024/01/31 07:20:16;;;;;;;127.45;50.80;;;;;;;5.52;100.00;101671.81;5022837;28;20159;-85
2024/01/31 07:22:43;;;;;;;110.78;44.35;;;;;;;5.52;100.00;101674.44;5037779;28;20454;-85
2024/01/31 07:25:13;;;;;;;112.22;45.38;;;;;;;5.54;100.00;101687.53;5047042;28;20041;-85
2024/01/31 07:27:41;;;;;;;109.97;44.13;;;;;;;5.53;100.00;101686.69;5037384;28;20121;-84
2024/01/31 07:30:10;;;;;;;106.60;43.03;;;;;;;5.55;100.00;101691.91;5033788;28;20037;-84
2024/01/31 07:32:37;;;;;;;93.10;40.90;;;;;;;5.55;100.00;101703.31;5070461;28;20049;-85
2024/01/31 07:35:07;;;;;;;117.88;47.97;;;;;;;5.56;100.00;101702.38;5017980;28;20095;-84
2024/01/31 07:37:36;;;;;;;145.98;57.50;;;;;;;5.54;100.00;101705.97;5067754;28;20049;-84
2024/01/31 07:40:09;;;;;;;138.60;55.55;;;;;;;5.53;100.00;101713.03;5043407;28;20429;-84
2024/01/31 07:42:36;;;;;;;136.88;56.22;;;;;;;5.51;100.00;101704.31;5054877;28;20060;-85
2024/01/31 07:45:04;;;;;;;149.80;57.47;;;;;;;5.51;100.00;101709.59;5016699;28;20049;-84
2024/01/31 07:47:31;;;;;;;158.88;57.35;;;;;;;5.53;100.00;101723.56;5063099;28;21161;-84
2024/01/31 07:49:58;;;;;;;152.00;55.13;;;;;;;5.54;100.00;101724.44;5020108;28;20042;-84
2024/01/31 07:52:25;;;;;;;135.02;54.70;;;;;;;5.53;100.00;101728.84;5017278;28;20124;-85
2024/01/31 07:54:52;;;;;;;125.65;49.40;;;;;;;5.54;100.00;101724.44;5068692;28;20076;-85
2024/01/31 07:57:19;;;;;;;149.80;57.60;;;;;;;5.56;100.00;101725.22;5025672;28;20560;-85
2024/01/31 07:59:45;;;;;;;158.77;58.50;;;;;;;5.57;100.00;101719.03;5055544;28;20081;-85
2024/01/31 08:02:12;;;;;;;134.82;53.80;;;;;;;5.59;100.00;101727.75;5025355;28;20539;-86
2024/01/31 08:04:39;;;;;;;136.07;49.30;;;;;;;5.61;100.00;101731.19;5034489;28;20033;-86
2024/01/31 08:07:06;;;;;;;127.35;47.92;;;;;;;5.62;100.00;101732.91;5027928;28;20045;-85
2024/01/31 08:09:33;;;;;;;129.60;49.63;;;;;;;5.63;100.00;101732.84;5043556;28;20111;-85
2024/01/31 08:12:00;;;;;;;125.13;49.05;;;;;;;5.65;100.00;101731.03;5037859;28;20480;-85
2024/01/31 08:14:27;;;;;;;125.30;49.13;;;;;;;5.66;100.00;101724.81;5036539;28;20043;-85
2024/01/31 08:16:54;;;;;;;136.00;51.92;;;;;;;5.68;100.00;101724.78;5076338;28;20399;-85
2024/01/31 08:19:20;;;;;;;131.00;47.10;;;;;;;5.70;100.00;101729.97;5038292;28;20040;-85
2024/01/31 08:21:47;;;;;;;111.82;45.70;;;;;;;5.70;100.00;101722.94;5035620;28;20052;-85
2024/01/31 08:24:14;;;;;;;106.43;43.95;;;;;;;5.70;100.00;101715.03;5039309;28;20053;-85
2024/01/31 08:26:41;;;;;;;150.68;50.08;;;;;;;5.71;100.00;101714.13;5026491;28;20469;-85
2024/01/31 08:29:08;;;;;;;147.93;53.88;;;;;;;5.73;100.00;101717.56;5015437;28;20064;-85
2024/01/31 08:31:48;;;;;;;119.75;43.85;;;;;;;5.75;100.00;101723.63;5050562;28;20049;-85
2024/01/31 08:34:17;;;;;;;112.60;44.85;;;;;;;5.75;100.00;101721.00;5026226;28;20131;-84
2024/01/31 08:36:44;;;;;;;108.43;40.47;;;;;;;5.77;100.00;101715.66;5025591;28;20040;-85
2024/01/31 08:39:10;;;;;;;119.25;44.20;;;;;;;5.80;100.00;101712.88;5048110;28;20384;-84
2024/01/31 08:41:37;;;;;;;133.13;44.85;;;;;;;5.82;100.00;101716.34;5034768;28;20469;-85
2024/01/31 08:44:04;;;;;;;127.75;46.65;;;;;;;5.85;100.00;101718.84;5001813;28;20052;-85
2024/01/31 08:46:31;;;;;;;109.80;41.75;;;;;;;5.87;100.00;101720.50;5020743;28;20054;-85
2024/01/31 08:49:05;;;;;;;124.78;41.28;;;;;;;5.90;100.00;101719.53;5035693;28;20043;-84
2024/01/31 08:51:33;;;;;;;107.93;39.78;;;;;;;5.92;100.00;101719.47;5034642;28;20052;-85
2024/01/31 08:54:00;;;;;;;105.45;39.10;;;;;;;5.94;100.00;101712.41;5035592;28;20033;-85
2024/01/31 08:56:26;;;;;;;107.53;36.72;;;;;;;5.94;100.00;101718.53;5048153;28;20052;-84
2024/01/31 08:58:53;;;;;;;100.32;37.47;;;;;;;5.97;100.00;101712.28;5047952;28;20073;-85
2024/01/31 09:01:20;;;;;;;106.97;36.75;;;;;;;5.97;100.00;101717.56;5017817;28;20140;-85
2024/01/31 09:03:48;;;;;;;88.68;35.38;;;;;;;5.98;100.00;101717.50;5035336;28;20559;-84
2024/01/31 09:06:15;;;;;;;105.95;38.58;;;;;;;6.00;100.00;101720.06;5063125;28;20046;-84
2024/01/31 09:08:42;;;;;;;102.47;36.13;;;;;;;6.00;100.00;101702.47;4986826;28;20110;-84
2024/01/31 09:11:09;;;;;;;105.35;38.58;;;;;;;6.03;100.00;101712.03;5017255;28;20538;-84
2024/01/31 09:13:36;;;;;;;100.90;37.25;;;;;;;6.03;100.00;101702.34;5014477;28;20064;-84
2024/01/31 09:16:03;;;;;;;110.53;37.67;;;;;;;6.05;100.00;101704.91;5052994;28;20053;-84
2024/01/31 09:18:30;;;;;;;111.00;38.35;;;;;;;6.06;100.00;101710.16;5063043;28;20045;-83
2024/01/31 09:20:57;;;;;;;98.22;36.05;;;;;;;6.07;100.00;101708.34;5017352;28;20049;-84
2024/01/31 09:23:24;;;;;;;103.75;39.85;;;;;;;6.07;100.00;101717.13;5017946;28;20045;-84
2024/01/31 09:25:51;;;;;;;102.85;37.72;;;;;;;6.09;100.00;101717.06;5038270;28;20472;-83
2024/01/31 09:28:19;;;;;;;114.82;40.80;;;;;;;6.11;100.00;101704.69;5030273;28;20041;-84
2024/01/31 09:30:46;;;;;;;110.45;40.63;;;;;;;6.13;100.00;101710.78;5013117;28;20124;-84
2024/01/31 09:33:12;;;;;;;103.43;37.33;;;;;;;6.12;100.00;101709.03;5045790;28;20437;-83
2024/01/31 09:35:39;;;;;;;105.50;38.78;;;;;;;6.17;100.00;101714.13;5017448;28;20052;-85
2024/01/31 09:38:06;;;;;;;107.70;39.60;;;;;;;6.17;100.00;101709.72;5033762;28;20136;-84
2024/01/31 09:40:33;;;;;;;112.30;36.63;;;;;;;6.18;100.00;101705.28;5032560;28;20052;-84
2024/01/31 09:43:00;;;;;;;106.72;38.35;;;;;;;6.21;100.00;101705.19;5028328;28;20048;-84
2024/01/31 09:45:28;;;;;;;108.75;38.78;;;;;;;6.22;100.00;101702.47;5038899;28;20051;-84
2024/01/31 09:47:57;;;;;;;98.15;34.95;;;;;;;6.22;100.00;101707.75;5013466;28;20053;-84
2024/01/31 09:50:24;;;;;;;116.47;39.80;;;;;;;6.25;100.00;101702.34;5057563;28;20049;-84
2024/01/31 09:52:55;;;;;;;107.28;38.90;;;;;;;6.29;100.00;101693.38;5023994;28;20102;-84
2024/01/31 09:55:23;;;;;;;116.57;39.38;;;;;;;6.29;100.00;101695.19;5021035;28;20045;-84
2024/01/31 09:57:53;;;;;;;108.97;36.97;;;;;;;6.30;100.00;101697.72;5035450;28;20689;-84
2024/01/31 10:00:20;;;;;;;100.95;37.53;;;;;;;6.34;100.00;101698.47;5030526;28;20056;-84
2024/01/31 10:02:50;;;;;;;114.65;44.00;;;;;;;6.37;100.00;101694.88;5032879;28;20454;-84
2024/01/31 10:05:17;;;;;;;124.45;43.17;;;;;;;6.38;100.00;101697.41;5032739;28;20037;-82
2024/01/31 10:07:43;;;;;;;126.07;45.70;;;;;;;6.39;100.00;101700.94;5033113;28;20061;-82
2024/01/31 10:10:10;;;;;;;111.47;44.63;;;;;;;6.40;100.00;101695.59;5026744;28;20044;-85
2024/01/31 10:12:38;;;;;;;125.03;44.85;;;;;;;6.41;100.00;101684.13;5020892;28;20056;-85
2024/01/31 10:15:09;;;;;;;128.73;44.95;;;;;;;6.44;100.00;101694.53;5021399;28;20508;-85
2024/01/31 10:17:36;;;;;;;133.98;45.95;;;;;;;6.45;100.00;101688.34;5037233;28;20076;-85
2024/01/31 10:20:10;;;;;;;110.68;40.92;;;;;;;6.47;100.00;101681.22;5036818;28;20033;-86
2024/01/31 10:22:38;;;;;;;121.05;44.53;;;;;;;6.50;100.00;101682.88;5026830;28;20050;-86
2024/01/31 10:25:05;;;;;;;139.15;47.58;;;;;;;6.52;100.00;101675.75;5039913;28;20098;-86
2024/01/31 10:27:37;;;;;;;123.07;46.42;;;;;;;6.53;100.00;101674.81;5017370;28;20051;-85
2024/01/31 10:30:13;;;;;;;136.05;48.72;;;;;;;6.50;100.00;101670.53;5021335;28;20053;-86
2024/01/31 10:32:41;;;;;;;154.32;54.72;;;;;;;6.56;100.00;101673.81;5031263;28;20045;-84
2024/01/31 10:35:08;;;;;;;133.88;47.63;;;;;;;6.59;100.00;101678.97;5035023;28;20064;-86
2024/01/31 10:37:55;;;;;;;127.60;46.10;;;;;;;6.58;100.00;101666.72;5038820;28;20041;-85
2024/01/31 10:40:28;;;;;;;130.45;47.42;;;;;;;6.60;100.00;101675.44;5036925;28;20412;-84
2024/01/31 10:42:57;;;;;;;138.57;45.97;;;;;;;6.61;100.00;101680.63;5026735;28;20106;-83
2024/01/31 10:45:25;;;;;;;140.90;48.75;;;;;;;6.63;100.00;101665.59;5046561;28;20047;-83
2024/01/31 10:47:53;;;;;;;140.35;47.70;;;;;;;6.64;100.00;101661.16;5030434;28;20037;-84
2024/01/31 10:50:20;;;;;;;145.23;49.50;;;;;;;6.65;100.00;101661.09;5030060;28;20152;-84
2024/01/31 10:52:48;;;;;;;161.13;51.15;;;;;;;6.66;100.00;101648.75;5035632;28;20055;-83
2024/01/31 10:55:15;;;;;;;148.10;51.10;;;;;;;6.69;100.00;101651.25;5028438;28;20047;-83
2024/01/31 10:57:42;;;;;;;150.73;49.95;;;;;;;6.72;100.00;101652.00;5030674;28;20384;-83
2024/01/31 11:00:10;;;;;;;143.07;50.15;;;;;;;6.77;100.00;101649.16;5008641;28;20048;-83
2024/01/31 11:02:38;;;;;;;158.13;50.05;;;;;;;6.81;100.00;101648.09;5030162;28;20060;-84
2024/01/31 11:05:05;;;;;;;136.02;47.95;;;;;;;6.84;100.00;101644.47;5032055;28;20072;-85